Latest Weather Observations for Swan Hill

IDV60801

Issued at 12:34 pm EDT Friday 9 December 2016 (issued every 30 minutes, with the page automatically refreshed every 10 minutes)

About weather observations | Map of weather stations | Latest weather observations for VIC | Other Formats
Station Details ID: 077094 Name: SWAN HILL AERODROME Lat: -35.38 Lon: 143.54 Height: 71.0 m
Data from the previous 72 hours. | See also: Recent months at Swan Hill
Date/Time
EDT
Temp
°C
App
Temp
°C
Dew
Point
°C
Rel
Hum
%
Delta-T
°C
Wind Press
QNH
hPa
Press
MSL
hPa
Rain since
9am
mm
Dir  Spd
km/h
Gust
km/h
Spd
kts
Gust
kts
09/12:30pm 18.9 12.8 0.5 29 8.1 SSW 22 33 12 18 1019.0 1018.7 0.0
09/12:00pm 18.0 12.4 1.1 32 7.5 SSW 20 35 11 19 1019.0 1018.7 0.0
09/11:30am 17.6 11.7 1.6 34 7.2 SW 22 35 12 19 1019.1 1018.8 0.0
09/11:00am 15.2 9.0 2.1 41 5.8 SW 24 33 13 18 1019.0 1018.7 0.0
09/10:30am 17.4 11.9 4.0 41 6.3 SSW 22 37 12 20 1018.8 1018.5 0.0
09/10:00am 14.8 9.3 3.9 48 5.0 SSW 22 33 12 18 1018.8 1018.5 0.0
09/09:30am 14.1 9.3 4.4 52 4.5 SSW 19 30 10 16 1018.5 1018.2 0.0
09/09:00am 13.9 9.3 5.8 58 3.8 SW 19 28 10 15 1018.3 1018.0 1.2
09/08:30am 12.6 7.5 6.2 65 3.0 SW 22 30 12 16 1017.7 1017.5 1.2
09/08:00am 11.5 5.7 6.2 70 2.5 SW 26 35 14 19 1017.3 1017.1 1.2
09/07:30am 10.7 6.1 6.3 74 2.1 SW 20 28 11 15 1016.7 1016.5 1.2
09/07:00am 9.3 4.8 5.9 79 1.6 SW 19 26 10 14 1016.3 1016.1 1.2
09/06:30am 8.6 4.4 5.5 81 1.4 SW 17 22 9 12 1015.7 1015.5 1.2
09/06:00am 8.6 3.8 5.5 81 1.4 SW 20 28 11 15 1014.9 1014.7 1.2
09/05:30am 8.6 3.9 5.2 79 1.5 WSW 19 26 10 14 1014.3 1014.1 1.2
09/05:00am 8.8 4.5 5.4 79 1.5 WSW 17 24 9 13 1013.6 1013.4 1.2
09/04:30am 8.9 3.6 4.9 76 1.8 WSW 22 26 12 14 1013.3 1013.1 1.2
09/04:00am 9.1 4.2 4.9 75 1.9 W 20 28 11 15 1013.2 1013.0 1.2
09/03:30am 9.6 4.6 4.8 72 2.2 WSW 20 24 11 13 1012.8 1012.6 1.2
09/03:00am 10.1 5.1 4.7 69 2.4 WSW 20 26 11 14 1012.7 1012.5 1.2
09/02:30am 10.4 5.6 4.8 68 2.5 WSW 19 26 10 14 1012.7 1012.5 1.2
09/02:00am 10.9 5.6 5.0 67 2.7 WSW 22 28 12 15 1012.7 1012.5 1.2
09/01:30am 11.3 6.4 5.2 66 2.8 WSW 20 28 11 15 1012.6 1012.4 1.2
09/01:00am 11.6 7.0 5.7 67 2.8 WSW 19 24 10 13 1012.6 1012.4 1.2
09/12:30am 12.3 6.8 5.7 64 3.1 SW 24 33 13 18 1012.4 1012.2 1.2
09/12:00am 12.7 7.5 5.6 62 3.3 SW 22 28 12 15 1012.3 1012.1 1.2
 
Date/Time
EDT
Temp
°C
App
Temp
°C
Dew
Point
°C
Rel
Hum
%
Delta-T
°C
Wind Press
QNH
hPa
Press
MSL
hPa
Rain since
9am
mm
Dir  Spd
km/h
Gust
km/h
Spd
kts
Gust
kts
08/11:30pm 13.4 7.5 5.8 60 3.6 SW 26 41 14 22 1012.0 1011.8 1.2
08/11:00pm 14.1 7.0 5.7 57 4.0 SW 32 46 17 25 1011.6 1011.3 1.2
08/10:50pm 14.4 7.2 5.2 54 4.3 SW 32 54 17 29 1011.5 1011.2 1.2
08/10:30pm 14.9 7.6 5.4 53 4.5 SW 33 50 18 27 1011.1 1010.8 1.2
08/10:00pm 15.5 8.8 5.7 52 4.7 SW 30 41 16 22 1010.3 1010.0 1.2
08/09:35pm 16.9 10.3 4.3 43 5.9 SW 28 46 15 25 1009.6 1009.3 1.2
08/09:30pm 16.9 11.1 4.6 44 5.8 SW 24 35 13 19 1009.5 1009.2 1.2
08/09:00pm 17.8 9.7 3.3 38 6.8 SW 35 50 19 27 1008.7 1008.4 1.2
08/08:30pm 18.1 8.4 2.8 36 7.1 WSW 43 54 23 29 1007.7 1007.4 1.2
08/08:00pm 18.8 9.4 2.2 33 7.6 WSW 41 56 22 30 1007.0 1006.7 1.2
08/07:32pm 19.6 9.8 2.0 31 8.1 SW 43 61 23 33 1006.5 1006.2 1.2
08/07:30pm 19.6 9.2 2.0 31 8.1 WSW 46 61 25 33 1006.4 1006.1 1.2
08/07:11pm 20.7 10.9 2.0 29 8.7 WSW 43 63 23 34 1005.7 1005.4 1.2
08/07:00pm 20.7 11.3 2.5 30 8.6 WSW 41 57 22 31 1005.6 1005.3 1.2
08/06:30pm 20.4 9.8 3.2 32 8.1 WSW 48 67 26 36 1004.8 1004.5 1.2
08/06:00pm 21.0 10.8 3.2 31 8.5 WSW 46 65 25 35 1004.1 1003.8 1.2
08/05:30pm 22.4 10.3 0.9 24 9.9 WSW 54 76 29 41 1003.7 1003.4 1.2
08/05:00pm 23.2 12.9 4.7 30 9.2 WSW 48 70 26 38 1003.7 1003.4 1.2
08/04:43pm 22.9 11.9 2.9 27 9.6 WSW 50 69 27 37 1002.9 1002.7 1.2
08/04:30pm 22.6 11.8 4.2 30 9.0 WSW 50 67 27 36 1003.0 1002.8 1.2
08/04:12pm 23.3 12.2 4.3 29 9.4 WSW 52 80 28 43 1002.7 1002.5 1.2
08/04:00pm 23.9 13.2 2.7 25 10.3 WSW 48 61 26 33 1002.6 1002.4 1.2
08/03:30pm 23.7 12.6 2.5 25 10.2 WSW 50 70 27 38 1002.5 1002.3 1.2
08/03:11pm 23.4 13.2 3.4 27 9.7 W 46 65 25 35 1002.6 1002.4 1.2
08/03:00pm 24.0 12.7 3.3 26 10.1 WSW 52 69 28 37 1002.6 1002.4 1.2
08/02:30pm 23.6 13.5 4.0 28 9.6 WSW 46 65 25 35 1002.8 1002.6 1.2
08/02:00pm 23.0 12.8 5.4 32 8.9 W 48 67 26 36 1002.9 1002.7 1.2
08/01:49pm 21.2 11.8 5.6 36 7.8 WSW 44 63 24 34 1003.0 1002.8 1.2
08/01:30pm 21.5 12.7 7.3 40 7.3 W 43 57 23 31 1003.0 1002.8 1.2
08/01:06pm 18.9 13.1 10.7 59 4.4 W 32 54 17 29 1003.0 1002.8 1.2
08/01:00pm 18.3 13.5 11.8 66 3.6 W 28 41 15 22 1003.1 1002.9 1.2
08/12:30pm 16.5 12.3 12.3 76 2.3 W 26 35 14 19 1003.5 1003.2 1.2
08/12:00pm 15.0 11.5 12.3 84 1.5 W 22 30 12 16 1003.5 1003.2 1.2
08/11:30am 14.6 9.4 11.6 82 1.6 WSW 30 41 16 22 1003.9 1003.6 1.2
08/11:00am 14.2 7.4 10.8 80 1.8 WSW 37 56 20 30 1003.1 1002.9 1.0
08/10:44am 13.9 7.3 11.2 84 1.4 WSW 37 57 20 31 1002.9 1002.7 1.0
08/10:39am 14.0 7.8 11.5 85 1.3 WSW 35 57 19 31 1003.0 1002.8 1.0
08/10:30am 14.1 7.3 12.0 87 1.1 WSW 39 54 21 29 1002.9 1002.7 1.0
08/10:16am 14.9 7.5 13.1 89 1.0 WSW 44 63 24 34 1002.5 1002.3 1.0
08/10:10am 15.2 8.2 13.6 90 0.9 WSW 43 56 23 30 1002.3 1002.1 1.0
08/10:00am 15.5 8.8 13.5 88 1.1 WSW 41 61 22 33 1002.1 1001.9 0.8
08/09:59am 15.6 9.3 13.4 87 1.2 W 39 61 21 33 1002.1 1001.9 0.8
08/09:56am 15.8 9.7 12.9 83 1.6 W 37 61 20 33 1002.0 1001.8 0.6
08/09:54am 19.1 15.1 16.3 84 1.7 WNW 32 61 17 33 1002.0 1001.8 0.2
08/09:51am 19.9 17.3 16.9 83 1.8 WNW 26 43 14 23 1001.5 1001.3 0.2
08/09:30am 21.1 18.3 16.3 74 2.9 NW 26 32 14 17 1001.1 1000.9 0.0
08/09:00am 20.8 18.5 15.8 73 3.0 NW 22 28 12 15 1001.1 1000.9 0.4
08/08:30am 19.8 17.8 15.4 76 2.6 NNW 20 26 11 14 1001.2 1001.0 0.4
08/08:00am 20.2 17.6 15.0 72 3.1 NNW 22 28 12 15 1000.7 1000.5 0.2
08/07:30am 21.1 16.2 13.8 63 4.2 NW 32 41 17 22 1000.8 1000.6 0.2
08/07:14am 22.3 17.8 12.5 53 5.6 NNW 28 48 15 26 1001.2 1001.0 0.0
08/07:00am 23.3 18.8 11.4 47 6.7 NNW 26 35 14 19 1001.2 1001.0 0.0
08/06:30am 24.8 19.3 9.1 37 8.5 N 28 37 15 20 1000.8 1000.6 0.0
08/06:00am 24.7 18.8 9.0 37 8.6 N 30 41 16 22 1000.7 1000.5 0.0
08/05:31am 24.6 18.9 8.5 36 8.7 N 28 46 15 25 1000.8 1000.6 0.0
08/05:30am 24.5 18.5 8.5 36 8.6 N 30 46 16 25 1000.8 1000.6 0.0
08/05:29am 24.6 18.9 8.5 36 8.7 N 28 46 15 25 1000.7 1000.5 0.0
08/05:00am 24.5 18.7 8.0 35 8.8 N 28 41 15 22 1000.7 1000.5 0.0
08/04:30am 23.8 17.9 7.4 35 8.6 N 28 37 15 20 1000.8 1000.6 0.0
08/04:00am 23.6 18.4 7.3 35 8.6 N 24 35 13 19 1001.2 1001.0 0.0
08/03:30am 23.3 18.1 7.4 36 8.3 N 24 32 13 17 1001.8 1001.6 0.0
08/03:00am 22.7 18.3 7.3 37 8.0 N 20 28 11 15 1002.3 1002.1 0.0
08/02:30am 23.1 18.7 7.2 36 8.3 NNE 20 28 11 15 1002.4 1002.2 0.0
08/02:00am 23.2 18.9 6.9 35 8.5 N 19 26 10 14 1002.9 1002.7 0.0
08/01:30am 23.9 19.2 6.2 32 9.1 NNE 20 26 11 14 1003.2 1003.0 0.0
08/01:00am 23.7 18.6 6.0 32 9.1 NNE 22 30 12 16 1003.8 1003.5 0.0
08/12:30am 23.8 18.3 6.1 32 9.1 NNE 24 32 13 17 1004.7 1004.4 0.0
08/12:00am 24.2 19.8 6.5 32 9.2 NNE 19 26 10 14 1005.2 1004.9 0.0
 
Date/Time
EDT
Temp
°C
App
Temp
°C
Dew
Point
°C
Rel
Hum
%
Delta-T
°C
Wind Press
QNH
hPa
Press
MSL
hPa
Rain since
9am
mm
Dir  Spd
km/h
Gust
km/h
Spd
kts
Gust
kts
07/11:30pm 24.4 20.8 6.6 32 9.2 NNE 15 19 8 10 1005.8 1005.5 0.0
07/11:00pm 23.4 19.8 6.7 34 8.7 NNE 15 19 8 10 1006.2 1005.9 0.0
07/10:30pm 23.2 20.0 6.9 35 8.4 NNE 13 17 7 9 1006.6 1006.3 0.0
07/10:00pm 24.7 21.6 7.4 33 9.1 NNE 13 17 7 9 1006.9 1006.6 0.0
07/09:30pm 24.4 21.7 7.5 34 8.9 NNE 11 15 6 8 1007.2 1006.9 0.0
07/09:00pm 25.1 22.3 6.8 31 9.6 NNE 11 13 6 7 1007.1 1006.8 0.0
07/08:30pm 26.9 23.6 6.3 27 10.8 N 13 17 7 9 1007.7 1007.4 0.0
07/08:00pm 28.5 24.6 5.4 23 12.1 N 15 19 8 10 1007.7 1007.4 0.0
07/07:30pm 29.8 24.9 5.1 21 12.9 NNW 20 26 11 14 1007.8 1007.5 0.0
07/07:00pm 29.9 25.8 4.5 20 13.2 NNW 15 22 8 12 1008.0 1007.7 0.0
07/06:30pm 31.0 26.0 4.7 19 13.7 WNW 20 32 11 17 1008.1 1007.8 0.0
07/06:00pm 31.5 27.4 4.3 18 14.2 NW 15 24 8 13 1008.5 1008.2 0.0
07/05:30pm 31.3 28.1 4.9 19 13.9 WNW 11 24 6 13 1008.9 1008.6 0.0
07/05:00pm 30.3 26.7 4.9 20 13.3 NW 13 19 7 10 1009.3 1009.0 0.0
07/04:30pm 31.7 26.9 4.5 18 14.2 W 19 32 10 17 1009.8 1009.5 0.0
07/04:00pm 30.9 25.9 4.6 19 13.7 W 20 33 11 18 1010.4 1010.1 0.0
07/03:30pm 30.6 25.9 5.1 20 13.4 W 19 33 10 18 1010.9 1010.6 0.0
07/03:00pm 29.5 24.9 3.5 19 13.2 NW 17 39 9 21 1011.3 1011.0 0.0
07/02:30pm 30.3 25.3 3.4 18 13.7 WNW 19 32 10 17 1011.9 1011.7 0.0
07/02:00pm 29.4 23.7 2.6 18 13.4 WNW 22 39 12 21 1012.5 1012.3 0.0
07/01:30pm 29.0 24.8 1.5 17 13.4 WNW 13 32 7 17 1012.8 1012.6 0.0
07/01:00pm 27.3 21.3 0.9 18 12.6 WNW 22 35 12 19 1013.4 1013.2 0.0
07/12:30pm 27.5 22.7 2.6 20 12.3 NW 17 30 9 16 1013.9 1013.7 0.0
07/12:00pm 26.3 21.7 3.5 23 11.3 NNW 17 30 9 16 1014.4 1014.2 0.0
07/11:30am 25.8 22.1 4.3 25 10.8 NNW 13 20 7 11 1014.8 1014.6 0.0
07/11:00am 24.0 20.3 4.4 28 9.7 N 13 22 7 12 1015.0 1014.8 0.0
07/10:30am 23.7 20.5 5.1 30 9.3 E 11 20 6 11 1015.0 1014.8 0.0
07/10:00am 21.6 18.6 5.9 36 7.9 NE 11 17 6 9 1015.4 1015.2 0.0
07/09:30am 20.5 17.4 7.2 42 6.8 NE 13 20 7 11 1015.6 1015.4 0.0
07/09:00am 19.4 17.3 8.1 48 5.8 ENE 9 13 5 7 1015.6 1015.4 -
07/08:30am 17.6 15.0 7.6 52 5.1 ESE 11 15 6 8 1015.4 1015.2 -
07/08:00am 15.9 12.9 7.7 58 4.1 E 13 19 7 10 1015.3 1015.1 -
07/07:30am 14.2 11.7 6.6 60 3.7 SSE 9 15 5 8 1014.9 1014.7 -
07/07:00am 12.0 8.9 5.6 65 3.0 SE 11 15 6 8 1014.4 1014.2 -
07/06:30am 10.2 7.3 4.4 67 2.6 S 9 13 5 7 1014.3 1014.1 -
07/06:00am 10.0 6.9 3.5 64 2.8 S 9 13 5 7 1014.2 1014.0 -
07/05:30am 10.8 7.3 3.4 60 3.3 S 11 15 6 8 1014.0 1013.8 -
07/05:00am 10.8 7.1 2.6 57 3.5 SSW 11 15 6 8 1013.9 1013.7 -
07/04:30am 10.2 7.3 1.6 55 3.6 SSW 6 6 3 3 1013.5 1013.3 -
07/04:00am 11.7 8.3 1.9 51 4.2 SSW 9 9 5 5 1013.4 1013.2 -
07/03:30am 11.6 8.5 1.3 49 4.3 SSW 7 9 4 5 1013.5 1013.3 -
07/03:00am 12.8 9.7 1.2 45 4.9 SSW 7 11 4 6 1013.4 1013.2 0.0
07/02:30am 14.2 9.9 0.8 40 5.7 SW 13 17 7 9 1013.5 1013.3 -
07/02:00am 14.2 9.9 1.2 41 5.6 SW 13 19 7 10 1013.7 1013.5 -
07/01:30am 14.0 10.9 1.3 42 5.5 SW 7 9 4 5 1013.7 1013.5 -
07/01:00am 13.5 10.3 0.9 42 5.4 WSW 7 9 4 5 1013.9 1013.7 -
07/12:30am 15.6 11.2 0.6 36 6.5 SW 13 15 7 8 1014.1 1013.9 -
07/12:00am 17.0 12.6 0.6 33 7.2 SW 13 15 7 8 1014.2 1014.0 -
 
Date/Time
EDT
Temp
°C
App
Temp
°C
Dew
Point
°C
Rel
Hum
%
Delta-T
°C
Wind Press
QNH
hPa
Press
MSL
hPa
Rain since
9am
mm
Dir  Spd
km/h
Gust
km/h
Spd
kts
Gust
kts
06/11:30pm 17.0 12.3 0.6 33 7.2 WSW 15 17 8 9 1014.1 1013.9 -
06/11:00pm 17.4 12.6 0.1 31 7.5 WSW 15 17 8 9 1014.2 1014.0 -
06/10:30pm 16.5 12.1 0.2 33 7.0 WSW 13 17 7 9 1014.2 1014.0 -
06/10:00pm 17.4 12.9 -0.3 30 7.6 WSW 13 15 7 8 1014.1 1013.9 -
06/09:30pm 17.9 13.4 -0.4 29 7.9 WSW 13 15 7 8 1013.9 1013.7 -
06/09:00pm 19.5 15.0 -0.5 26 8.7 WSW 13 15 7 8 1013.7 1013.5 0.0
06/08:30pm 22.6 17.3 -0.8 21 10.4 WSW 17 22 9 12 1013.4 1013.2 -
06/08:00pm 24.5 18.5 -1.3 18 11.6 WSW 20 26 11 14 1013.1 1012.9 -
06/07:30pm 24.7 18.4 -1.2 18 11.7 W 22 30 12 16 1012.8 1012.6 -
06/07:00pm 25.6 19.4 -0.5 18 12.0 W 22 28 12 15 1012.2 1012.0 -
06/06:30pm 25.9 19.9 -1.8 16 12.5 W 20 28 11 15 1012.1 1011.9 -
06/06:00pm 25.6 20.3 -0.5 18 12.0 WSW 17 30 9 16 1012.2 1012.0 -
06/05:30pm 25.9 20.2 -1.0 17 12.3 SW 19 30 10 16 1012.0 1011.8 -
06/05:00pm 26.7 21.3 -1.2 16 12.8 SW 17 26 9 14 1012.2 1012.0 -
06/04:30pm 27.3 20.9 -1.6 15 13.2 WSW 22 30 12 16 1012.6 1012.4 -
06/04:00pm 26.7 20.4 -1.2 16 12.8 WSW 22 33 12 18 1012.6 1012.4 -
06/03:30pm 25.9 20.3 -0.2 18 12.1 WSW 19 30 10 16 1012.9 1012.7 -
06/03:00pm 25.7 19.8 1.8 21 11.5 WSW 22 37 12 20 1012.5 1012.3 0.2
06/02:30pm 23.6 17.6 3.5 27 9.8 WSW 24 35 13 19 1013.1 1012.9 -
06/02:00pm 24.9 19.2 3.0 24 10.7 W 22 32 12 17 1013.5 1013.3 -
06/01:30pm 24.3 18.2 2.5 24 10.5 W 24 37 13 20 1013.4 1013.2 -
06/01:00pm 24.2 20.3 6.9 33 9.0 WSW 17 32 9 17 1013.9 1013.7 0.0

Other Formats:

Comma delimited format used in spreadsheet applications
http://www.bom.gov.au/fwo/IDV60801/IDV60801.94843.axf

JavaScript Object Notation format (JSON) in row-major order
http://www.bom.gov.au/fwo/IDV60801/IDV60801.94843.json